Aeroporto :
LOGIN :

Iscrizione | Disclaimer

   EN    FR    IT 

 










Sommario :    VFR   VFR Marginale   IFR   IFR Intensivo   IFR Molto Intensivo
Visibilità : 
Base nubi : 
>= 8 km
>= 3000ft
5 / 8 km
1000 / 3000 ft
1500m / 5 km
500 / 1000 ft
800 / 1500m
200 / 500 ft
< 800m
< 200 ft
Simboli :   Temporali  Nebbia  Neve Forte  Precipitazioni Forti  Vento > 20 kt
SIGMETs :   Varie  Temporali  Ghiacco  Turbolenza  Onda orograficha  Ceneri Vulcaniche






- Altitudine del aeroporto : 190 ft


LBPG - Graf Ignatievo Air Base

ULTIMO METAR :
  • 032000Z 06004KT 9999 SCT060 BKN200 08/05 Q1015

METARs OBSOLETI :
  • 031900Z 03004KT 9999 FEW060 BKN200 09/05 Q1015
  • 031800Z 30004KT 9999 FEW060 BKN200 09/06 Q1015

TAF TAF LBPG
Valido dal 03 a 18 ore il 04 a 06 ore UTC


031700Z 0318/0406 VRB04KT 9999 BKN200 SCT100
BECMG 0400/0402 OVC020
TEMPO 0402/0406 1500 DZ BR SCT003 BKN007 OVC010BY LBSA



MetMap, La meteo Aeronautica in un colpo d'occhio ! - Copyright ORBIFLY Dicembre 2007 - Disclaimer

ORBIFLY MET'MAP TEAM :

Programmazione e sviluppo : Alexandra Zaïnal
Concezione : Baudouin d'Aumeries
Aiuto per la programmazione : Marc-Olivier Méhu
Supporto tecnico e logistico : Manuel Goepfert
Aiuto per la traduzione : Arnaldo La Scala

Contatto : metmap@orbifly.com




FONTI E CREDITI :

   NOAA